Time;durP1;ratioP1;P1;durP2;ratioP2;P2;SDS_P1;SDS_P2;PMS_P1;PMS_P2;Temp;Humidity;BMP_temperature;BMP_pressure;BME280_temperature;BME280_humidity;BME280_pressure;Samples;Min_cycle;Max_cycle;Signal;HPM_P1;HPM_P2
2022/12/27 00:02:12;;;;;;;3.08;1.52;;;5.60;79.00;;;;;;5039270;28;20029;-61
2022/12/27 00:04:38;;;;;;;2.30;1.65;;;5.70;79.10;;;;;;5047359;28;20380;-62
2022/12/27 00:07:04;;;;;;;10.25;2.63;;;5.60;79.00;;;;;;5055214;28;20024;-63
2022/12/27 00:09:30;;;;;;;5.88;2.35;;;5.60;79.30;;;;;;5054103;28;20056;-62
2022/12/27 00:11:56;;;;;;;4.70;2.22;;;5.60;79.50;;;;;;5038599;28;20021;-60
2022/12/27 00:14:21;;;;;;;3.78;2.25;;;5.60;80.10;;;;;;5041608;28;20066;-61
2022/12/27 00:16:47;;;;;;;2.10;1.77;;;5.60;79.80;;;;;;5035305;28;20396;-60
2022/12/27 00:19:13;;;;;;;6.18;2.13;;;5.60;79.60;;;;;;5045081;28;20082;-61
2022/12/27 00:21:39;;;;;;;2.78;1.45;;;5.60;79.80;;;;;;5049488;28;20472;-61
2022/12/27 00:24:05;;;;;;;5.63;2.35;;;5.60;79.90;;;;;;5050192;28;20029;-60
2022/12/27 00:26:33;;;;;;;4.15;2.40;;;5.50;79.90;;;;;;5046503;28;20033;-60
2022/12/27 00:28:59;;;;;;;3.30;2.03;;;5.60;80.00;;;;;;5037083;28;20033;-61
2022/12/27 00:31:27;;;;;;;4.10;1.63;;;5.60;80.10;;;;;;5044206;28;20024;-62
2022/12/27 00:33:55;;;;;;;3.95;1.65;;;5.60;80.10;;;;;;5039685;28;20013;-62
2022/12/27 00:36:23;;;;;;;2.85;1.92;;;5.60;80.10;;;;;;5038143;28;20033;-62
2022/12/27 00:38:50;;;;;;;4.30;1.85;;;5.60;79.90;;;;;;5043969;28;20036;-60
2022/12/27 00:41:17;;;;;;;5.82;2.22;;;5.60;80.00;;;;;;5045108;28;20412;-62
2022/12/27 00:43:43;;;;;;;3.60;1.60;;;5.60;80.20;;;;;;5044613;28;20022;-62
2022/12/27 00:46:09;;;;;;;5.00;2.15;;;5.60;80.20;;;;;;5040466;28;20063;-60
2022/12/27 00:48:36;;;;;;;9.25;2.55;;;5.60;80.40;;;;;;5046175;28;20142;-59
2022/12/27 00:51:04;;;;;;;3.92;2.13;;;5.60;80.40;;;;;;5039839;28;20078;-59
2022/12/27 00:53:31;;;;;;;3.53;1.98;;;5.60;80.40;;;;;;5056918;28;20039;-60
2022/12/27 00:55:57;;;;;;;3.40;1.75;;;5.60;80.50;;;;;;5045175;28;20471;-61
2022/12/27 00:58:23;;;;;;;4.90;1.40;;;5.60;80.50;;;;;;5042105;28;20044;-61
2022/12/27 01:00:49;;;;;;;6.72;2.33;;;5.60;80.50;;;;;;5041470;28;20025;-61
2022/12/27 01:03:16;;;;;;;6.78;1.90;;;5.60;80.70;;;;;;5048774;28;20051;-61
2022/12/27 01:05:42;;;;;;;2.00;1.55;;;5.60;80.90;;;;;;5047822;28;20040;-60
2022/12/27 01:08:08;;;;;;;6.13;1.90;;;5.60;80.90;;;;;;5049343;28;20025;-61
2022/12/27 01:10:34;;;;;;;7.43;2.25;;;5.60;80.90;;;;;;5046212;28;20499;-60
2022/12/27 01:13:01;;;;;;;27.98;2.38;;;5.60;81.00;;;;;;5042706;28;20041;-60
2022/12/27 01:15:26;;;;;;;3.83;1.75;;;5.60;81.10;;;;;;5032329;28;20501;-61
2022/12/27 01:17:52;;;;;;;4.55;2.15;;;5.60;81.00;;;;;;5040478;28;20205;-61
2022/12/27 01:20:18;;;;;;;3.45;1.83;;;5.60;81.10;;;;;;5041552;28;20048;-62
2022/12/27 01:22:43;;;;;;;3.65;1.65;;;5.60;81.20;;;;;;5043576;28;20021;-60
2022/12/27 01:25:09;;;;;;;3.35;1.77;;;5.50;81.10;;;;;;5047870;28;20029;-59
2022/12/27 01:27:35;;;;;;;2.63;1.58;;;5.60;81.20;;;;;;5054536;28;20020;-60
2022/12/27 01:30:02;;;;;;;4.90;1.77;;;5.60;81.30;;;;;;5047393;28;20460;-61
2022/12/27 01:32:28;;;;;;;6.78;2.10;;;5.50;81.40;;;;;;5050733;28;20505;-61
2022/12/27 01:34:53;;;;;;;1.92;1.67;;;5.50;81.60;;;;;;5039173;28;20032;-60
2022/12/27 01:37:19;;;;;;;6.00;2.03;;;5.50;81.60;;;;;;5052635;28;20029;-61
2022/12/27 01:39:45;;;;;;;2.03;1.63;;;5.50;81.60;;;;;;5045309;28;20029;-61
2022/12/27 01:45:10;;;;;;;3.40;1.88;;;5.50;81.70;;;;;;5053919;28;20400;-59
2022/12/27 01:47:41;;;;;;;2.53;1.92;;;5.50;81.70;;;;;;5052062;28;20391;-59
2022/12/27 01:50:22;;;;;;;3.70;2.17;;;5.60;81.80;;;;;;5048017;28;20031;-62
2022/12/27 01:52:59;;;;;;;3.08;1.42;;;5.60;81.80;;;;;;5045252;28;20727;-59
2022/12/27 01:55:43;;;;;;;3.45;1.85;;;5.60;81.70;;;;;;5045762;28;20029;-60
2022/12/27 01:58:35;;;;;;;2.40;1.58;;;5.60;81.60;;;;;;5044120;28;20039;-60
2022/12/27 02:01:03;;;;;;;6.65;2.03;;;5.70;81.40;;;;;;5037841;28;20019;-60
2022/12/27 02:03:33;;;;;;;1.80;1.52;;;5.70;81.40;;;;;;5044283;28;20504;-60
2022/12/27 02:06:01;;;;;;;3.50;1.90;;;5.70;81.30;;;;;;5050625;28;20139;-59
2022/12/27 02:08:36;;;;;;;3.22;2.08;;;5.70;81.30;;;;;;5049035;28;20499;-60
2022/12/27 02:11:03;;;;;;;3.15;1.75;;;5.70;81.40;;;;;;5050581;28;20055;-59
2022/12/27 02:13:32;;;;;;;1.55;1.30;;;5.70;81.30;;;;;;5040083;28;20029;-60
2022/12/27 02:15:58;;;;;;;2.22;2.00;;;5.70;81.20;;;;;;5048204;28;20039;-60
2022/12/27 02:18:24;;;;;;;3.40;1.75;;;5.70;81.30;;;;;;5052936;28;20033;-60
2022/12/27 02:21:07;;;;;;;3.00;1.75;;;5.70;81.40;;;;;;5044265;28;20034;-60
2022/12/27 02:24:02;;;;;;;12.98;2.20;;;5.70;81.40;;;;;;5053793;28;20480;-59
2022/12/27 02:27:15;;;;;;;4.25;2.08;;;5.70;81.70;;;;;;5041430;28;20052;-59
2022/12/27 02:30:01;;;;;;;;;;;5.70;82.00;;;;;;5036660;28;20307;-59
2022/12/27 02:32:50;;;;;;;5.43;2.20;;;5.70;82.60;;;;;;5041020;28;19913;-60
2022/12/27 02:35:40;;;;;;;2.03;1.70;;;5.60;83.00;;;;;;5044076;28;20047;-61
2022/12/27 02:38:16;;;;;;;3.13;1.88;;;5.70;83.00;;;;;;5047414;28;20112;-61
2022/12/27 02:59:04;;;;;;;2.75;1.48;;;5.80;82.90;;;;;;5053442;28;20124;-59
2022/12/27 03:05:31;;;;;;;1.67;1.58;;;5.80;83.00;;;;;;4999950;28;20115;-59
2022/12/27 03:08:01;;;;;;;1.65;1.50;;;5.70;83.20;;;;;;5043317;28;20052;-61
2022/12/27 03:16:56;;;;;;;4.32;1.40;;;5.70;83.30;;;;;;5039913;28;20047;-61
2022/12/27 03:25:27;;;;;;;2.30;1.33;;;5.80;83.60;;;;;;5045694;28;20114;-59
2022/12/27 03:34:30;;;;;;;3.05;1.45;;;5.70;84.00;;;;;;5033760;28;20056;-61
2022/12/27 03:39:48;;;;;;;1.38;1.10;;;5.60;84.20;;;;;;5048085;28;20056;-61
2022/12/27 03:45:07;;;;;;;5.28;2.05;;;5.70;84.30;;;;;;5055432;28;20444;-61
2022/12/27 03:47:39;;;;;;;2.92;1.77;;;5.60;84.60;;;;;;5047256;28;20106;-60
2022/12/27 03:50:08;;;;;;;3.28;1.95;;;5.60;84.60;;;;;;5052357;28;20029;-61
2022/12/27 03:52:53;;;;;;;5.57;1.90;;;5.60;84.80;;;;;;5046973;28;20025;-61
2022/12/27 03:55:19;;;;;;;5.35;1.67;;;5.60;84.90;;;;;;5044541;28;20481;-61
2022/12/27 03:57:45;;;;;;;4.85;2.15;;;5.60;85.00;;;;;;5044338;28;20039;-61
2022/12/27 04:00:11;;;;;;;2.90;1.80;;;5.60;84.90;;;;;;5048028;28;20029;-60
2022/12/27 04:02:37;;;;;;;8.35;2.13;;;5.70;85.20;;;;;;5040526;28;20508;-59
2022/12/27 04:05:03;;;;;;;10.00;1.88;;;5.70;85.10;;;;;;5039919;28;20093;-60
2022/12/27 04:07:29;;;;;;;2.72;2.38;;;5.70;85.10;;;;;;5047824;28;20123;-60
2022/12/27 04:34:41;;;;;;;2.45;2.00;;;5.70;85.20;;;;;;5043725;28;20037;-59
2022/12/27 04:37:07;;;;;;;3.33;1.45;;;5.60;85.30;;;;;;5046776;28;20039;-60
2022/12/27 04:39:33;;;;;;;3.55;1.42;;;5.60;85.30;;;;;;5048247;28;20033;-59
2022/12/27 04:56:04;;;;;;;7.50;2.15;;;5.50;85.60;;;;;;5042460;28;20089;-59
2022/12/27 04:58:30;;;;;;;2.03;1.70;;;5.50;85.60;;;;;;5050382;28;20040;-60
2022/12/27 05:03:46;;;;;;;7.25;2.13;;;5.50;85.50;;;;;;5048407;28;20128;-61
2022/12/27 05:06:12;;;;;;;4.70;1.35;;;5.50;86.30;;;;;;5045327;28;20112;-60
2022/12/27 05:14:10;;;;;;;1.80;1.52;;;5.40;85.90;;;;;;5050683;28;20134;-59
2022/12/27 05:16:38;;;;;;;2.08;1.60;;;5.40;86.00;;;;;;5049491;28;20103;-59
2022/12/27 05:19:06;;;;;;;4.30;1.98;;;5.40;85.90;;;;;;5042206;28;20029;-59
2022/12/27 05:25:33;;;;;;;7.43;1.65;;;5.40;85.90;;;;;;5047383;28;20025;-59
2022/12/27 05:27:09;;;;;;;5.00;1.77;;;5.40;86.00;;;;;;5046702;28;20391;-60
2022/12/27 05:29:35;;;;;;;3.53;1.63;;;5.40;86.00;;;;;;5044824;28;20028;-59
2022/12/27 05:32:01;;;;;;;4.80;1.83;;;5.40;86.00;;;;;;5045867;28;20108;-61
2022/12/27 05:34:26;;;;;;;2.67;1.90;;;5.40;86.10;;;;;;5049227;28;20029;-59
2022/12/27 05:36:52;;;;;;;3.60;1.88;;;5.40;86.10;;;;;;5044322;28;20061;-59
2022/12/27 05:39:18;;;;;;;3.40;2.00;;;5.50;86.20;;;;;;5047128;28;20152;-59
2022/12/27 05:41:43;;;;;;;2.10;1.70;;;5.50;86.20;;;;;;5043537;28;20104;-59
2022/12/27 05:44:09;;;;;;;4.80;2.03;;;5.50;86.30;;;;;;5036101;28;20072;-60
2022/12/27 05:46:35;;;;;;;4.72;1.80;;;5.50;86.20;;;;;;5044518;28;20086;-60
2022/12/27 05:49:00;;;;;;;4.10;1.75;;;5.50;86.30;;;;;;5046820;28;20395;-59
2022/12/27 05:51:26;;;;;;;2.85;1.90;;;5.50;86.30;;;;;;5062590;28;20166;-60
2022/12/27 05:53:52;;;;;;;3.88;1.65;;;5.50;86.40;;;;;;5059806;28;20039;-60
2022/12/27 05:56:19;;;;;;;3.83;1.83;;;5.50;86.30;;;;;;5047936;28;20060;-60
2022/12/27 05:58:45;;;;;;;10.13;2.33;;;5.50;86.40;;;;;;5082878;28;20029;-61
2022/12/27 06:01:17;;;;;;;3.55;1.92;;;5.50;86.50;;;;;;5049193;28;20116;-60
2022/12/27 06:03:43;;;;;;;3.33;2.00;;;5.50;86.50;;;;;;5044550;28;20055;-58
2022/12/27 06:06:09;;;;;;;9.25;3.05;;;5.50;86.50;;;;;;5043418;28;20029;-59
2022/12/27 06:08:36;;;;;;;2.42;1.70;;;5.50;86.60;;;;;;5048879;28;20025;-61
2022/12/27 06:11:04;;;;;;;3.55;1.50;;;5.50;86.50;;;;;;5043690;28;20033;-59
2022/12/27 06:13:30;;;;;;;2.80;1.85;;;5.50;86.50;;;;;;5048952;28;20025;-59
2022/12/27 06:15:59;;;;;;;5.90;2.08;;;5.50;86.50;;;;;;5049414;28;20046;-59
2022/12/27 06:18:24;;;;;;;2.55;1.70;;;5.50;86.50;;;;;;5040180;28;20100;-61
2022/12/27 06:20:50;;;;;;;2.97;1.83;;;5.50;86.50;;;;;;5050404;28;20178;-61
2022/12/27 06:23:16;;;;;;;3.17;1.65;;;5.50;86.60;;;;;;5045905;28;20380;-59
2022/12/27 06:25:41;;;;;;;1.17;1.08;;;5.50;86.50;;;;;;5046065;28;20029;-59
2022/12/27 06:28:07;;;;;;;3.42;1.52;;;5.50;86.50;;;;;;5050489;28;20134;-61
2022/12/27 06:30:33;;;;;;;4.38;1.67;;;5.50;86.50;;;;;;5044712;28;20025;-61
2022/12/27 06:32:58;;;;;;;2.38;1.80;;;5.50;86.50;;;;;;5048244;28;20052;-60
2022/12/27 06:35:24;;;;;;;3.67;1.83;;;5.50;86.60;;;;;;5040502;28;20029;-61
2022/12/27 06:37:50;;;;;;;3.47;2.20;;;5.50;86.80;;;;;;5038346;28;20037;-61
2022/12/27 06:40:15;;;;;;;5.10;1.98;;;5.50;86.80;;;;;;5040142;28;20060;-61
2022/12/27 06:42:41;;;;;;;2.03;1.48;;;5.50;86.70;;;;;;5042001;28;20021;-58
2022/12/27 06:45:08;;;;;;;3.38;1.83;;;5.40;86.70;;;;;;5036505;28;20599;-59
2022/12/27 06:47:35;;;;;;;1.30;1.17;;;5.40;86.70;;;;;;5038060;28;20032;-60
2022/12/27 06:50:01;;;;;;;3.22;1.60;;;5.40;86.80;;;;;;5046889;28;20029;-60
2022/12/27 06:52:27;;;;;;;3.45;1.90;;;5.40;86.80;;;;;;5037872;28;20025;-60
2022/12/27 06:54:52;;;;;;;4.00;1.40;;;5.40;86.90;;;;;;5030204;28;20109;-59
2022/12/27 06:57:18;;;;;;;2.13;1.63;;;5.40;87.00;;;;;;5045515;28;20044;-60
2022/12/27 06:59:44;;;;;;;2.65;1.50;;;5.40;87.10;;;;;;5041976;28;20087;-62
2022/12/27 07:02:10;;;;;;;4.63;1.73;;;5.40;87.10;;;;;;5037522;28;20021;-60
2022/12/27 07:04:36;;;;;;;4.82;1.63;;;5.40;87.10;;;;;;5041264;28;20136;-60
2022/12/27 07:07:01;;;;;;;3.63;1.83;;;5.40;87.10;;;;;;5043426;28;20433;-58
2022/12/27 07:09:27;;;;;;;2.67;1.38;;;5.40;87.20;;;;;;5035972;28;20330;-62
2022/12/27 07:11:53;;;;;;;6.43;1.95;;;5.40;87.10;;;;;;5035957;28;20119;-62
2022/12/27 07:14:18;;;;;;;2.33;1.63;;;5.40;87.10;;;;;;5034817;28;20029;-62
2022/12/27 07:16:44;;;;;;;4.38;2.22;;;5.40;87.00;;;;;;5036077;28;20029;-61
2022/12/27 07:19:10;;;;;;;4.97;2.05;;;5.40;87.00;;;;;;5031524;28;20030;-59
2022/12/27 07:21:36;;;;;;;3.42;1.65;;;5.40;87.00;;;;;;5033867;28;20418;-58
2022/12/27 07:24:02;;;;;;;5.47;2.40;;;5.40;87.50;;;;;;5031559;28;20037;-61
2022/12/27 07:26:29;;;;;;;8.65;1.30;;;5.40;86.90;;;;;;5028178;28;20091;-62
2022/12/27 07:28:57;;;;;;;2.97;1.67;;;5.40;87.00;;;;;;5041437;28;20067;-62
2022/12/27 07:31:28;;;;;;;3.63;1.65;;;5.40;87.00;;;;;;5043089;28;20388;-62
2022/12/27 07:33:54;;;;;;;4.40;1.50;;;5.40;86.90;;;;;;5049761;28;20021;-60
2022/12/27 07:36:23;;;;;;;1.58;1.30;;;5.50;86.80;;;;;;5042095;28;20033;-60
2022/12/27 07:38:49;;;;;;;3.72;1.73;;;5.40;86.70;;;;;;5046157;28;20548;-59
2022/12/27 07:41:15;;;;;;;4.90;1.77;;;5.50;86.70;;;;;;5048621;28;20044;-59
2022/12/27 07:43:43;;;;;;;4.63;2.25;;;5.50;86.60;;;;;;5043884;28;20052;-61
2022/12/27 07:46:17;;;;;;;3.05;1.77;;;5.50;86.60;;;;;;5039181;28;20040;-62
2022/12/27 07:48:46;;;;;;;5.43;2.00;;;5.50;86.60;;;;;;5040846;28;20064;-61
2022/12/27 07:51:12;;;;;;;3.03;1.42;;;5.50;86.60;;;;;;5033239;28;20029;-61
2022/12/27 07:53:38;;;;;;;1.73;1.17;;;5.50;86.70;;;;;;5047702;28;20244;-61
2022/12/27 07:56:06;;;;;;;5.28;1.52;;;5.50;86.70;;;;;;5047710;28;20496;-59
2022/12/27 07:58:37;;;;;;;2.90;1.48;;;5.50;86.60;;;;;;5048494;28;20577;-60
2022/12/27 08:01:04;;;;;;;1.67;1.20;;;5.50;86.60;;;;;;5048335;28;20021;-60
2022/12/27 08:03:30;;;;;;;1.48;1.38;;;5.50;86.50;;;;;;5047626;28;20044;-59
2022/12/27 08:05:56;;;;;;;4.85;1.63;;;5.50;86.40;;;;;;5045612;28;20479;-59
2022/12/27 08:08:26;;;;;;;5.38;1.85;;;5.50;86.40;;;;;;5051323;28;20021;-59
2022/12/27 08:10:52;;;;;;;4.10;1.98;;;5.50;86.40;;;;;;5044532;28;20037;-60
2022/12/27 08:13:18;;;;;;;4.93;1.92;;;5.50;86.30;;;;;;5049883;28;20035;-59
2022/12/27 08:15:44;;;;;;;3.08;1.73;;;5.50;86.30;;;;;;5047477;28;20439;-60
2022/12/27 08:18:09;;;;;;;1.63;1.48;;;5.60;86.30;;;;;;5033719;28;20087;-60
2022/12/27 08:20:35;;;;;;;5.10;1.65;;;5.50;86.20;;;;;;5043366;28;20032;-60
2022/12/27 08:23:01;;;;;;;2.50;1.70;;;5.60;86.30;;;;;;5043560;28;20052;-63
2022/12/27 08:25:28;;;;;;;2.03;1.73;;;5.50;86.20;;;;;;5038556;28;20049;-60
2022/12/27 08:28:09;;;;;;;6.07;1.85;;;5.60;86.30;;;;;;5039927;28;20027;-65
2022/12/27 08:30:34;;;;;;;2.40;1.63;;;5.60;86.20;;;;;;5030873;28;20033;-63
2022/12/27 08:33:01;;;;;;;2.00;1.48;;;5.60;86.30;;;;;;5045038;28;20379;-62
2022/12/27 08:35:27;;;;;;;6.38;2.53;;;5.60;86.20;;;;;;5046195;28;20032;-64
2022/12/27 08:37:52;;;;;;;6.68;2.58;;;5.60;86.10;;;;;;5057778;28;20017;-63
2022/12/27 08:40:18;;;;;;;3.10;1.80;;;5.70;86.10;;;;;;5042269;28;20048;-63
2022/12/27 08:42:44;;;;;;;6.38;2.20;;;5.70;86.20;;;;;;5051247;28;20061;-61
2022/12/27 08:45:10;;;;;;;4.35;2.50;;;5.70;86.20;;;;;;5061125;28;20120;-61
2022/12/27 08:47:36;;;;;;;7.03;2.40;;;5.70;86.20;;;;;;5056586;28;20060;-60
2022/12/27 08:50:02;;;;;;;3.38;1.98;;;5.70;86.20;;;;;;5050227;28;20407;-61
2022/12/27 08:52:28;;;;;;;4.68;2.40;;;5.70;86.20;;;;;;5039568;28;20032;-61
2022/12/27 08:54:53;;;;;;;4.22;2.03;;;5.80;86.20;;;;;;5037447;28;20029;-61
2022/12/27 08:57:19;;;;;;;4.00;2.17;;;5.80;86.10;;;;;;5044331;28;20697;-61
2022/12/27 08:59:45;;;;;;;3.13;1.85;;;5.90;86.60;;;;;;5044617;28;20048;-60
2022/12/27 09:02:11;;;;;;;8.07;1.95;;;5.90;86.00;;;;;;5039672;28;20437;-59
2022/12/27 09:04:37;;;;;;;4.32;1.80;;;5.90;86.00;;;;;;5052234;28;20076;-59
2022/12/27 09:07:03;;;;;;;4.88;1.73;;;5.90;85.90;;;;;;5047542;28;20025;-63
2022/12/27 09:09:29;;;;;;;3.72;2.15;;;6.00;85.90;;;;;;5048643;28;20111;-61
2022/12/27 09:11:55;;;;;;;2.63;2.05;;;6.00;85.80;;;;;;5047850;28;20229;-59
2022/12/27 09:14:21;;;;;;;2.35;1.30;;;6.00;85.90;;;;;;5039620;28;20043;-59
2022/12/27 09:16:46;;;;;;;9.75;2.30;;;6.00;85.80;;;;;;5051389;28;20047;-61
2022/12/27 09:19:12;;;;;;;4.80;2.20;;;6.10;85.70;;;;;;5046269;28;20048;-59
2022/12/27 09:21:40;;;;;;;6.85;2.20;;;6.10;85.60;;;;;;5043187;28;20036;-61
2022/12/27 09:24:07;;;;;;;9.18;2.58;;;6.10;85.70;;;;;;5037798;28;20480;-61
2022/12/27 09:26:32;;;;;;;3.20;1.88;;;6.10;85.90;;;;;;5030863;28;20032;-62
2022/12/27 09:28:59;;;;;;;2.15;1.73;;;6.10;85.80;;;;;;5039671;28;20022;-59
2022/12/27 09:31:25;;;;;;;5.95;1.98;;;6.10;85.80;;;;;;5047591;28;20029;-59
2022/12/27 09:33:52;;;;;;;3.13;1.60;;;6.20;85.80;;;;;;5039366;28;20040;-60
2022/12/27 09:36:26;;;;;;;9.55;2.13;;;6.20;85.70;;;;;;5045414;28;20195;-61
2022/12/27 09:38:53;;;;;;;4.72;2.22;;;6.20;85.60;;;;;;5041585;28;20112;-59
2022/12/27 09:41:43;;;;;;;4.97;1.30;;;6.20;85.70;;;;;;5039811;28;20574;-59
2022/12/27 09:44:49;;;;;;;5.10;1.88;;;6.30;85.60;;;;;;5043968;28;20031;-59
2022/12/27 09:47:40;;;;;;;4.60;2.13;;;6.30;85.50;;;;;;5040047;28;20036;-61
2022/12/27 09:50:13;;;;;;;3.20;2.50;;;6.30;85.60;;;;;;5043569;28;20108;-61
2022/12/27 09:53:01;;;;;;;3.83;2.58;;;6.30;85.70;;;;;;5044653;28;20480;-61
2022/12/27 09:55:36;;;;;;;4.03;2.20;;;6.30;85.70;;;;;;5045566;28;20112;-61
2022/12/27 09:58:34;;;;;;;3.70;2.25;;;6.30;85.80;;;;;;5050488;28;20028;-59
2022/12/27 10:01:01;;;;;;;5.28;2.90;;;6.30;85.80;;;;;;5038460;28;20380;-61
2022/12/27 10:03:28;;;;;;;6.45;3.08;;;6.30;86.00;;;;;;5042567;28;20041;-60
2022/12/27 10:06:12;;;;;;;10.32;2.92;;;6.30;86.10;;;;;;5050324;28;20040;-61
2022/12/27 10:08:44;;;;;;;2.55;2.22;;;6.30;85.90;;;;;;5037277;28;20611;-61
2022/12/27 10:11:37;;;;;;;3.13;1.98;;;6.40;86.10;;;;;;5049225;28;20365;-61
2022/12/27 10:14:24;;;;;;;5.53;2.40;;;6.40;85.90;;;;;;5040453;28;20037;-61
2022/12/27 10:17:00;;;;;;;3.33;2.45;;;6.50;85.90;;;;;;5046519;28;20072;-61
2022/12/27 10:19:49;;;;;;;5.75;2.83;;;6.50;85.80;;;;;;5042400;28;20028;-60
2022/12/27 10:22:37;;;;;;;3.85;2.30;;;6.50;85.70;;;;;;5041743;28;20428;-60
2022/12/27 10:25:11;;;;;;;14.10;3.03;;;6.50;85.60;;;;;;5048164;28;20032;-61
2022/12/27 10:27:38;;;;;;;6.05;2.53;;;6.50;85.80;;;;;;5046877;28;20032;-60
2022/12/27 10:30:18;;;;;;;13.43;3.83;;;6.50;85.70;;;;;;5047623;28;20552;-60
2022/12/27 10:32:44;;;;;;;6.72;2.53;;;6.60;85.60;;;;;;5048010;28;20570;-69
2022/12/27 10:35:14;;;;;;;6.35;2.15;;;6.60;85.80;;;;;;5047347;28;20430;-63
2022/12/27 10:37:41;;;;;;;4.05;2.67;;;6.60;85.80;;;;;;5049151;28;20030;-63
2022/12/27 10:40:13;;;;;;;6.32;2.80;;;6.60;85.70;;;;;;5045388;28;20037;-62
2022/12/27 10:42:44;;;;;;;4.43;3.15;;;6.70;85.70;;;;;;5046338;28;20037;-62
2022/12/27 10:45:38;;;;;;;5.30;3.47;;;6.70;85.50;;;;;;5039165;28;20067;-61
2022/12/27 10:48:15;;;;;;;5.07;3.15;;;6.80;85.30;;;;;;5045130;28;20029;-62
2022/12/27 10:51:06;;;;;;;5.30;3.20;;;6.80;85.40;;;;;;5045844;28;20403;-59
2022/12/27 10:53:53;;;;;;;7.68;3.40;;;6.80;85.30;;;;;;5043267;28;20029;-59
2022/12/27 10:56:30;;;;;;;8.27;4.22;;;6.80;85.30;;;;;;5044121;28;20472;-64
2022/12/27 10:59:24;;;;;;;5.50;2.83;;;6.90;85.40;;;;;;5042431;28;20029;-63
2022/12/27 11:02:13;;;;;;;5.10;3.72;;;6.90;85.40;;;;;;5044532;28;20373;-63
2022/12/27 11:04:58;;;;;;;8.77;2.90;;;7.00;85.30;;;;;;5038809;28;20044;-63
2022/12/27 11:07:32;;;;;;;3.92;2.92;;;7.10;85.20;;;;;;5044724;28;20021;-59
2022/12/27 11:10:20;;;;;;;10.70;3.75;;;7.30;85.10;;;;;;5042139;28;20017;-59
2022/12/27 11:12:58;;;;;;;5.57;3.15;;;7.50;84.30;;;;;;5077252;28;20036;-63
2022/12/27 11:15:25;;;;;;;5.18;4.03;;;7.60;84.00;;;;;;5037878;28;20036;-58
2022/12/27 11:17:57;;;;;;;8.25;3.47;;;7.70;83.70;;;;;;5039611;28;20037;-63
2022/12/27 11:20:37;;;;;;;5.90;2.58;;;7.70;83.50;;;;;;5043643;28;20053;-63
2022/12/27 11:23:04;;;;;;;7.65;3.60;;;7.70;83.70;;;;;;5039127;28;20091;-59
2022/12/27 11:25:31;;;;;;;3.15;2.67;;;7.60;83.80;;;;;;5038877;28;20139;-59
2022/12/27 11:28:20;;;;;;;6.60;3.30;;;7.60;84.00;;;;;;5040088;28;20119;-59
2022/12/27 11:31:08;;;;;;;5.35;2.92;;;7.60;84.10;;;;;;5029808;28;20512;-63
2022/12/27 11:33:45;;;;;;;3.88;2.60;;;7.80;83.70;;;;;;5043454;28;20025;-63
2022/12/27 11:36:12;;;;;;;4.05;2.83;;;7.90;83.50;;;;;;5036085;28;20495;-64
2022/12/27 11:38:41;;;;;;;5.32;2.65;;;8.60;83.20;;;;;;5039170;28;20031;-60
2022/12/27 11:41:15;;;;;;;7.57;2.83;;;9.90;81.90;;;;;;5031982;28;20026;-60
2022/12/27 11:43:49;;;;;;;4.05;2.03;;;11.10;76.70;;;;;;5033057;28;20022;-60
2022/12/27 11:46:27;;;;;;;4.45;2.03;;;11.60;75.60;;;;;;5037628;28;20056;-65
2022/12/27 11:48:56;;;;;;;8.60;2.03;;;12.00;74.70;;;;;;5036128;28;20020;-60
2022/12/27 11:51:49;;;;;;;2.60;1.88;;;12.70;72.80;;;;;;5044536;28;20108;-58
2022/12/27 11:54:42;;;;;;;4.68;2.10;;;13.50;69.50;;;;;;5039131;28;20044;-63
2022/12/27 11:57:30;;;;;;;3.00;1.85;;;13.80;68.20;;;;;;5071506;28;20043;-64
2022/12/27 12:00:05;;;;;;;5.63;2.25;;;14.50;66.30;;;;;;5038790;28;20043;-64
2022/12/27 12:02:49;;;;;;;4.40;1.70;;;14.90;66.00;;;;;;5034892;28;20104;-64
2022/12/27 12:05:37;;;;;;;10.25;1.75;;;14.80;64.50;;;;;;5037003;28;20045;-64
2022/12/27 12:08:47;;;;;;;1.77;1.33;;;14.30;65.00;;;;;;5044656;28;20419;-64
2022/12/27 12:11:30;;;;;;;4.03;1.58;;;13.40;67.50;;;;;;5039088;28;20037;-64
2022/12/27 12:14:06;;;;;;;4.03;1.38;;;14.30;67.10;;;;;;5034039;28;20045;-64
2022/12/27 12:16:58;;;;;;;4.18;2.35;;;14.70;64.70;;;;;;5052242;28;20484;-59
2022/12/27 12:19:53;;;;;;;1.42;1.17;;;15.20;62.80;;;;;;5039600;28;20021;-58
2022/12/27 12:22:53;;;;;;;1.58;1.10;;;16.40;60.40;;;;;;5039130;28;20400;-58
2022/12/27 12:25:40;;;;;;;0.88;0.82;;;16.70;59.30;;;;;;5046308;28;20029;-58
2022/12/27 12:28:12;;;;;;;3.92;1.40;;;15.80;58.70;;;;;;5036800;28;20040;-59
2022/12/27 12:31:02;;;;;;;3.65;1.50;;;14.70;60.50;;;;;;5044041;28;20037;-64
2022/12/27 12:34:13;;;;;;;3.28;1.67;;;13.60;62.30;;;;;;5041451;28;20109;-64
2022/12/27 12:36:48;;;;;;;5.28;1.10;;;12.50;65.60;;;;;;5038911;28;20453;-58
2022/12/27 12:39:52;;;;;;;2.00;1.25;;;12.00;67.60;;;;;;5038108;28;20036;-58
2022/12/27 12:42:36;;;;;;;1.38;0.90;;;12.60;67.80;;;;;;5032041;28;20033;-64
2022/12/27 12:45:16;;;;;;;3.20;1.10;;;12.70;66.30;;;;;;5031887;28;20040;-64
2022/12/27 12:48:01;;;;;;;1.42;1.20;;;12.50;66.50;;;;;;5031644;28;20079;-58
2022/12/27 12:50:47;;;;;;;3.67;1.77;;;11.90;67.50;;;;;;5035266;28;20075;-63
2022/12/27 12:53:38;;;;;;;1.42;0.95;;;11.50;69.20;;;;;;5043961;28;20021;-63
2022/12/27 12:56:06;;;;;;;3.60;1.02;;;11.30;70.10;;;;;;5032882;28;20086;-58
2022/12/27 12:58:37;;;;;;;8.93;1.02;;;11.30;70.30;;;;;;5038171;28;20044;-58
2022/12/27 13:01:17;;;;;;;1.47;0.80;;;11.10;70.60;;;;;;5034419;28;20048;-59
2022/12/27 13:04:21;;;;;;;10.38;1.20;;;10.90;71.50;;;;;;5044438;28;20069;-64
2022/12/27 13:07:09;;;;;;;2.15;1.27;;;10.80;71.60;;;;;;5044516;28;20350;-64
2022/12/27 13:10:20;;;;;;;6.55;1.50;;;10.50;72.30;;;;;;5027208;28;20025;-64
2022/12/27 13:12:56;;;;;;;1.75;0.85;;;10.20;73.00;;;;;;5038730;28;20944;-64
2022/12/27 13:15:46;;;;;;;1.50;1.10;;;10.00;73.80;;;;;;5033899;28;20021;-59
2022/12/27 13:18:41;;;;;;;2.13;1.25;;;9.80;74.20;;;;;;5048036;28;20037;-59
2022/12/27 13:21:18;;;;;;;1.75;1.05;;;9.70;74.80;;;;;;5031113;28;20168;-64
2022/12/27 13:24:02;;;;;;;2.08;1.38;;;9.80;74.90;;;;;;5045975;28;20021;-64
2022/12/27 13:26:54;;;;;;;2.22;0.98;;;9.80;75.10;;;;;;5037416;28;20484;-64
2022/12/27 13:29:46;;;;;;;5.10;2.10;;;10.40;75.00;;;;;;5036614;28;20040;-59
2022/12/27 13:32:20;;;;;;;3.38;1.08;;;10.70;73.20;;;;;;5043733;28;20044;-63
2022/12/27 13:35:04;;;;;;;7.28;1.70;;;10.90;73.00;;;;;;5038973;28;20040;-64
2022/12/27 13:37:55;;;;;;;2.00;1.20;;;10.90;72.30;;;;;;5040056;28;20033;-64
2022/12/27 13:40:40;;;;;;;0.80;0.80;;;11.00;72.70;;;;;;5039875;28;20029;-64
2022/12/27 13:43:20;;;;;;;3.35;1.15;;;11.50;72.70;;;;;;5042649;28;20028;-64
2022/12/27 13:46:14;;;;;;;1.40;1.05;;;12.20;70.70;;;;;;5034859;28;20033;-64
2022/12/27 13:49:05;;;;;;;1.45;0.85;;;12.50;68.80;;;;;;5030437;28;20459;-64
2022/12/27 13:51:49;;;;;;;2.00;1.38;;;12.20;69.20;;;;;;5044382;28;20030;-59
2022/12/27 13:54:36;;;;;;;2.53;1.58;;;11.90;69.20;;;;;;5039713;28;20036;-59
2022/12/27 13:57:05;;;;;;;2.45;1.27;;;11.50;70.10;;;;;;5033701;28;20416;-59
2022/12/27 13:59:58;;;;;;;0.98;0.90;;;11.10;71.10;;;;;;5033137;28;20028;-58
2022/12/27 14:02:36;;;;;;;1.70;1.20;;;10.90;71.80;;;;;;5038209;28;20052;-59
2022/12/27 14:05:08;;;;;;;1.25;1.10;;;10.60;72.70;;;;;;5040852;28;20052;-59
2022/12/27 14:08:00;;;;;;;1.13;1.02;;;10.40;73.30;;;;;;5044344;28;20433;-59
2022/12/27 14:10:44;;;;;;;5.40;1.20;;;10.20;73.80;;;;;;5035105;28;20025;-64
2022/12/27 14:13:10;;;;;;;1.60;0.98;;;10.00;74.50;;;;;;5035414;28;20037;-64
2022/12/27 14:15:42;;;;;;;0.85;0.80;;;9.90;74.90;;;;;;5029833;28;20040;-64
2022/12/27 14:18:46;;;;;;;3.10;1.40;;;9.90;75.10;;;;;;5039913;28;20034;-59
2022/12/27 14:21:29;;;;;;;4.00;1.83;;;9.80;75.20;;;;;;4997200;28;20442;-59
2022/12/27 14:24:17;;;;;;;4.05;1.20;;;9.70;75.70;;;;;;4998050;28;20080;-64
2022/12/27 14:27:16;;;;;;;4.68;0.93;;;9.60;76.00;;;;;;5021274;28;20092;-64
2022/12/27 14:30:13;;;;;;;1.42;1.00;;;9.70;76.10;;;;;;5038388;28;20033;-59
2022/12/27 14:33:09;;;;;;;2.13;1.38;;;9.70;76.10;;;;;;5034252;28;20507;-58
2022/12/27 14:36:02;;;;;;;1.85;1.08;;;9.70;76.20;;;;;;5031157;28;20516;-64
2022/12/27 14:38:46;;;;;;;1.48;1.13;;;9.60;76.40;;;;;;5035540;28;20435;-65
2022/12/27 14:42:02;;;;;;;4.93;1.27;;;9.50;76.70;;;;;;5042931;28;20155;-60
2022/12/27 14:44:40;;;;;;;6.10;1.05;;;9.50;76.70;;;;;;4998455;28;20117;-59
2022/12/27 14:47:05;;;;;;;2.28;1.30;;;9.40;77.10;;;;;;4983598;28;20049;-59
2022/12/27 14:50:17;;;;;;;2.25;1.00;;;9.30;77.20;;;;;;5024054;28;20080;-59
2022/12/27 14:53:04;;;;;;;1.20;1.10;;;9.30;77.30;;;;;;5047273;28;20024;-59
2022/12/27 14:55:54;;;;;;;2.38;1.20;;;9.20;77.50;;;;;;5050453;28;20111;-59
2022/12/27 14:58:41;;;;;;;5.07;1.17;;;9.20;77.70;;;;;;5039923;28;20028;-59
2022/12/27 15:01:27;;;;;;;2.65;1.30;;;9.20;77.90;;;;;;5043504;28;20543;-65
2022/12/27 15:04:11;;;;;;;1.67;1.27;;;9.20;78.00;;;;;;5050129;28;20044;-64
2022/12/27 15:07:01;;;;;;;1.58;1.02;;;9.20;78.00;;;;;;5046329;28;20043;-59
2022/12/27 15:09:45;;;;;;;2.17;0.90;;;9.20;78.00;;;;;;5050881;28;20031;-61
2022/12/27 15:12:29;;;;;;;1.00;0.80;;;9.30;77.80;;;;;;5047913;28;20086;-59